sensor_id;sensor_type;location;lat;lon;timestamp;P1;durP1;ratioP1;P2;durP2;ratioP2
5125;SDS011;63008;53.112;8.896;2023-05-27T00:00:25;17.90;;;5.97;;
5125;SDS011;63008;53.112;8.896;2023-05-27T00:02:26;17.13;;;5.50;;
5125;SDS011;63008;53.112;8.896;2023-05-27T00:04:28;21.93;;;6.17;;
5125;SDS011;63008;53.112;8.896;2023-05-27T00:06:28;14.13;;;5.30;;
5125;SDS011;63008;53.112;8.896;2023-05-27T00:08:29;17.40;;;5.60;;
5125;SDS011;63008;53.112;8.896;2023-05-27T00:10:30;19.20;;;5.97;;
5125;SDS011;63008;53.112;8.896;2023-05-27T00:12:31;22.83;;;6.13;;
5125;SDS011;63008;53.112;8.896;2023-05-27T00:14:32;17.37;;;6.43;;
5125;SDS011;63008;53.112;8.896;2023-05-27T00:16:33;22.27;;;6.10;;
5125;SDS011;63008;53.112;8.896;2023-05-27T00:18:37;22.83;;;5.40;;
5125;SDS011;63008;53.112;8.896;2023-05-27T00:20:38;18.20;;;5.53;;
5125;SDS011;63008;53.112;8.896;2023-05-27T00:22:39;18.67;;;6.23;;
5125;SDS011;63008;53.112;8.896;2023-05-27T00:24:41;22.23;;;5.30;;
5125;SDS011;63008;53.112;8.896;2023-05-27T00:26:42;19.47;;;5.90;;
5125;SDS011;63008;53.112;8.896;2023-05-27T00:28:43;22.47;;;6.00;;
5125;SDS011;63008;53.112;8.896;2023-05-27T00:30:44;25.90;;;7.33;;
5125;SDS011;63008;53.112;8.896;2023-05-27T00:32:45;15.57;;;5.40;;
5125;SDS011;63008;53.112;8.896;2023-05-27T00:34:49;18.50;;;6.00;;
5125;SDS011;63008;53.112;8.896;2023-05-27T00:36:50;23.93;;;6.30;;
5125;SDS011;63008;53.112;8.896;2023-05-27T00:38:51;21.90;;;7.73;;
5125;SDS011;63008;53.112;8.896;2023-05-27T00:40:52;22.50;;;5.97;;
5125;SDS011;63008;53.112;8.896;2023-05-27T00:42:54;19.43;;;5.20;;
5125;SDS011;63008;53.112;8.896;2023-05-27T00:44:55;23.93;;;6.30;;
5125;SDS011;63008;53.112;8.896;2023-05-27T00:46:56;21.53;;;7.00;;
5125;SDS011;63008;53.112;8.896;2023-05-27T00:48:57;19.27;;;6.90;;
5125;SDS011;63008;53.112;8.896;2023-05-27T00:50:58;25.13;;;6.77;;
5125;SDS011;63008;53.112;8.896;2023-05-27T00:52:59;20.67;;;5.90;;
5125;SDS011;63008;53.112;8.896;2023-05-27T00:55:00;18.83;;;6.00;;
5125;SDS011;63008;53.112;8.896;2023-05-27T00:57:01;16.73;;;6.30;;
5125;SDS011;63008;53.112;8.896;2023-05-27T00:59:03;18.30;;;6.20;;
5125;SDS011;63008;53.112;8.896;2023-05-27T01:01:05;23.00;;;7.00;;
5125;SDS011;63008;53.112;8.896;2023-05-27T01:03:07;29.93;;;5.83;;
5125;SDS011;63008;53.112;8.896;2023-05-27T01:05:09;14.90;;;5.30;;
5125;SDS011;63008;53.112;8.896;2023-05-27T01:07:21;22.73;;;6.00;;
5125;SDS011;63008;53.112;8.896;2023-05-27T01:09:32;19.60;;;6.50;;
5125;SDS011;63008;53.112;8.896;2023-05-27T01:11:59;22.40;;;6.83;;
5125;SDS011;63008;53.112;8.896;2023-05-27T01:14:07;23.00;;;6.43;;
5125;SDS011;63008;53.112;8.896;2023-05-27T01:16:15;17.13;;;5.97;;
5125;SDS011;63008;53.112;8.896;2023-05-27T01:18:16;20.97;;;6.00;;
5125;SDS011;63008;53.112;8.896;2023-05-27T01:20:20;29.97;;;6.47;;
5125;SDS011;63008;53.112;8.896;2023-05-27T01:22:25;22.53;;;7.20;;
5125;SDS011;63008;53.112;8.896;2023-05-27T01:24:27;20.03;;;6.10;;
5125;SDS011;63008;53.112;8.896;2023-05-27T01:26:28;15.70;;;5.43;;
5125;SDS011;63008;53.112;8.896;2023-05-27T01:28:29;18.57;;;6.40;;
5125;SDS011;63008;53.112;8.896;2023-05-27T01:30:31;26.67;;;7.20;;
5125;SDS011;63008;53.112;8.896;2023-05-27T01:32:48;16.70;;;5.47;;
5125;SDS011;63008;53.112;8.896;2023-05-27T01:37:09;22.07;;;6.70;;
5125;SDS011;63008;53.112;8.896;2023-05-27T01:39:14;15.37;;;5.80;;
5125;SDS011;63008;53.112;8.896;2023-05-27T01:41:16;19.60;;;6.40;;
5125;SDS011;63008;53.112;8.896;2023-05-27T01:43:18;18.23;;;5.87;;
5125;SDS011;63008;53.112;8.896;2023-05-27T01:45:20;12.40;;;4.77;;
5125;SDS011;63008;53.112;8.896;2023-05-27T01:47:21;13.60;;;5.00;;
5125;SDS011;63008;53.112;8.896;2023-05-27T01:49:22;13.57;;;4.80;;
5125;SDS011;63008;53.112;8.896;2023-05-27T01:51:23;12.97;;;4.13;;
5125;SDS011;63008;53.112;8.896;2023-05-27T01:53:24;15.90;;;4.30;;
5125;SDS011;63008;53.112;8.896;2023-05-27T01:55:25;12.60;;;4.00;;
5125;SDS011;63008;53.112;8.896;2023-05-27T01:57:26;15.77;;;4.40;;
5125;SDS011;63008;53.112;8.896;2023-05-27T01:59:27;11.33;;;3.60;;
5125;SDS011;63008;53.112;8.896;2023-05-27T02:01:28;12.13;;;4.43;;
5125;SDS011;63008;53.112;8.896;2023-05-27T02:03:29;8.93;;;4.53;;
5125;SDS011;63008;53.112;8.896;2023-05-27T02:05:30;9.73;;;3.73;;
5125;SDS011;63008;53.112;8.896;2023-05-27T02:07:31;15.23;;;4.53;;
5125;SDS011;63008;53.112;8.896;2023-05-27T02:09:32;18.23;;;5.00;;
5125;SDS011;63008;53.112;8.896;2023-05-27T02:11:33;17.50;;;5.33;;
5125;SDS011;63008;53.112;8.896;2023-05-27T02:13:34;22.73;;;5.73;;
5125;SDS011;63008;53.112;8.896;2023-05-27T02:15:35;12.80;;;5.50;;
5125;SDS011;63008;53.112;8.896;2023-05-27T02:17:36;13.03;;;4.40;;
5125;SDS011;63008;53.112;8.896;2023-05-27T02:19:38;11.13;;;5.40;;
5125;SDS011;63008;53.112;8.896;2023-05-27T02:21:39;14.30;;;4.40;;
5125;SDS011;63008;53.112;8.896;2023-05-27T02:23:40;14.57;;;4.80;;
5125;SDS011;63008;53.112;8.896;2023-05-27T02:25:41;14.67;;;4.90;;
5125;SDS011;63008;53.112;8.896;2023-05-27T02:27:42;16.97;;;5.83;;
5125;SDS011;63008;53.112;8.896;2023-05-27T02:29:47;14.07;;;4.57;;
5125;SDS011;63008;53.112;8.896;2023-05-27T02:31:48;12.60;;;4.83;;
5125;SDS011;63008;53.112;8.896;2023-05-27T02:33:49;12.07;;;4.20;;
5125;SDS011;63008;53.112;8.896;2023-05-27T02:35:50;16.50;;;4.67;;
5125;SDS011;63008;53.112;8.896;2023-05-27T02:37:51;10.57;;;4.33;;
5125;SDS011;63008;53.112;8.896;2023-05-27T02:39:52;19.50;;;5.00;;
5125;SDS011;63008;53.112;8.896;2023-05-27T02:41:54;12.60;;;5.17;;
5125;SDS011;63008;53.112;8.896;2023-05-27T02:43:54;13.73;;;5.63;;
5125;SDS011;63008;53.112;8.896;2023-05-27T02:45:55;15.87;;;5.27;;
5125;SDS011;63008;53.112;8.896;2023-05-27T02:47:57;13.17;;;4.77;;
5125;SDS011;63008;53.112;8.896;2023-05-27T02:50:00;17.53;;;5.00;;
5125;SDS011;63008;53.112;8.896;2023-05-27T02:52:02;15.97;;;4.60;;
5125;SDS011;63008;53.112;8.896;2023-05-27T02:54:03;10.00;;;4.73;;
5125;SDS011;63008;53.112;8.896;2023-05-27T02:56:04;6.43;;;4.10;;
5125;SDS011;63008;53.112;8.896;2023-05-27T02:58:05;12.43;;;4.10;;
5125;SDS011;63008;53.112;8.896;2023-05-27T03:00:07;13.50;;;4.30;;
5125;SDS011;63008;53.112;8.896;2023-05-27T03:02:12;8.50;;;3.20;;
5125;SDS011;63008;53.112;8.896;2023-05-27T03:04:13;3.93;;;2.63;;
5125;SDS011;63008;53.112;8.896;2023-05-27T03:06:14;7.47;;;3.33;;
5125;SDS011;63008;53.112;8.896;2023-05-27T03:08:15;5.50;;;2.90;;
5125;SDS011;63008;53.112;8.896;2023-05-27T03:10:16;4.87;;;3.03;;
5125;SDS011;63008;53.112;8.896;2023-05-27T03:12:20;9.03;;;2.97;;
5125;SDS011;63008;53.112;8.896;2023-05-27T03:14:21;3.93;;;2.63;;
5125;SDS011;63008;53.112;8.896;2023-05-27T03:16:22;4.33;;;2.90;;
5125;SDS011;63008;53.112;8.896;2023-05-27T03:18:23;10.87;;;4.53;;
5125;SDS011;63008;53.112;8.896;2023-05-27T03:20:24;3.47;;;3.00;;
5125;SDS011;63008;53.112;8.896;2023-05-27T03:22:25;12.43;;;3.40;;
5125;SDS011;63008;53.112;8.896;2023-05-27T03:24:26;7.07;;;3.37;;
5125;SDS011;63008;53.112;8.896;2023-05-27T03:26:27;4.53;;;3.03;;
5125;SDS011;63008;53.112;8.896;2023-05-27T03:28:28;7.87;;;3.57;;
5125;SDS011;63008;53.112;8.896;2023-05-27T03:30:29;9.73;;;3.93;;
5125;SDS011;63008;53.112;8.896;2023-05-27T03:32:31;7.70;;;3.70;;
5125;SDS011;63008;53.112;8.896;2023-05-27T03:34:32;5.73;;;3.40;;
5125;SDS011;63008;53.112;8.896;2023-05-27T03:36:33;6.67;;;3.50;;
5125;SDS011;63008;53.112;8.896;2023-05-27T03:38:35;7.37;;;3.70;;
5125;SDS011;63008;53.112;8.896;2023-05-27T03:40:36;9.63;;;3.83;;
5125;SDS011;63008;53.112;8.896;2023-05-27T03:42:37;13.43;;;5.00;;
5125;SDS011;63008;53.112;8.896;2023-05-27T03:44:38;5.37;;;3.67;;
5125;SDS011;63008;53.112;8.896;2023-05-27T03:46:39;9.80;;;4.50;;
5125;SDS011;63008;53.112;8.896;2023-05-27T03:48:40;7.37;;;4.00;;
5125;SDS011;63008;53.112;8.896;2023-05-27T03:50:41;8.80;;;4.73;;
5125;SDS011;63008;53.112;8.896;2023-05-27T03:52:42;9.73;;;4.30;;
5125;SDS011;63008;53.112;8.896;2023-05-27T03:54:43;9.83;;;4.27;;
5125;SDS011;63008;53.112;8.896;2023-05-27T03:56:44;10.10;;;4.13;;
5125;SDS011;63008;53.112;8.896;2023-05-27T03:58:49;9.40;;;3.73;;
5125;SDS011;63008;53.112;8.896;2023-05-27T04:00:50;9.07;;;3.90;;
5125;SDS011;63008;53.112;8.896;2023-05-27T04:02:52;11.37;;;4.50;;
5125;SDS011;63008;53.112;8.896;2023-05-27T04:04:53;10.17;;;4.00;;
5125;SDS011;63008;53.112;8.896;2023-05-27T04:06:54;6.60;;;4.30;;
5125;SDS011;63008;53.112;8.896;2023-05-27T04:08:56;9.60;;;3.63;;
5125;SDS011;63008;53.112;8.896;2023-05-27T04:10:57;12.50;;;4.07;;
5125;SDS011;63008;53.112;8.896;2023-05-27T04:12:58;7.50;;;4.40;;
5125;SDS011;63008;53.112;8.896;2023-05-27T04:14:59;8.20;;;4.47;;
5125;SDS011;63008;53.112;8.896;2023-05-27T04:17:00;8.77;;;4.20;;
5125;SDS011;63008;53.112;8.896;2023-05-27T04:19:01;9.03;;;4.10;;
5125;SDS011;63008;53.112;8.896;2023-05-27T04:21:02;7.97;;;4.27;;
5125;SDS011;63008;53.112;8.896;2023-05-27T04:23:03;11.80;;;4.17;;
5125;SDS011;63008;53.112;8.896;2023-05-27T04:25:04;8.23;;;4.37;;
5125;SDS011;63008;53.112;8.896;2023-05-27T04:27:06;9.00;;;3.77;;
5125;SDS011;63008;53.112;8.896;2023-05-27T04:29:07;5.80;;;3.97;;
5125;SDS011;63008;53.112;8.896;2023-05-27T04:31:10;6.30;;;4.07;;
5125;SDS011;63008;53.112;8.896;2023-05-27T04:33:14;4.10;;;3.70;;
5125;SDS011;63008;53.112;8.896;2023-05-27T04:35:15;4.70;;;3.47;;
5125;SDS011;63008;53.112;8.896;2023-05-27T04:37:16;6.23;;;3.60;;
5125;SDS011;63008;53.112;8.896;2023-05-27T04:39:19;8.33;;;3.97;;
5125;SDS011;63008;53.112;8.896;2023-05-27T04:41:20;8.43;;;4.00;;
5125;SDS011;63008;53.112;8.896;2023-05-27T04:43:22;6.93;;;3.80;;
5125;SDS011;63008;53.112;8.896;2023-05-27T04:45:23;7.73;;;3.27;;
5125;SDS011;63008;53.112;8.896;2023-05-27T04:47:24;3.60;;;3.30;;
5125;SDS011;63008;53.112;8.896;2023-05-27T04:49:25;11.40;;;3.63;;
5125;SDS011;63008;53.112;8.896;2023-05-27T04:51:27;7.60;;;3.47;;
5125;SDS011;63008;53.112;8.896;2023-05-27T04:53:28;6.43;;;3.90;;
5125;SDS011;63008;53.112;8.896;2023-05-27T04:55:28;4.00;;;3.50;;
5125;SDS011;63008;53.112;8.896;2023-05-27T04:57:31;6.20;;;4.77;;
5125;SDS011;63008;53.112;8.896;2023-05-27T04:59:32;7.67;;;3.80;;
5125;SDS011;63008;53.112;8.896;2023-05-27T05:01:46;14.30;;;5.10;;
5125;SDS011;63008;53.112;8.896;2023-05-27T05:04:10;12.27;;;5.10;;
5125;SDS011;63008;53.112;8.896;2023-05-27T05:06:13;9.80;;;5.17;;
5125;SDS011;63008;53.112;8.896;2023-05-27T05:08:14;11.43;;;5.03;;
5125;SDS011;63008;53.112;8.896;2023-05-27T05:10:15;13.40;;;6.10;;
5125;SDS011;63008;53.112;8.896;2023-05-27T05:12:16;12.90;;;5.73;;
5125;SDS011;63008;53.112;8.896;2023-05-27T05:14:17;9.60;;;5.80;;
5125;SDS011;63008;53.112;8.896;2023-05-27T05:16:18;11.60;;;5.37;;
5125;SDS011;63008;53.112;8.896;2023-05-27T05:18:19;11.00;;;5.50;;
5125;SDS011;63008;53.112;8.896;2023-05-27T05:20:20;17.50;;;5.10;;
5125;SDS011;63008;53.112;8.896;2023-05-27T05:22:21;20.27;;;5.50;;
5125;SDS011;63008;53.112;8.896;2023-05-27T05:24:26;18.23;;;5.50;;
5125;SDS011;63008;53.112;8.896;2023-05-27T05:26:27;16.37;;;6.17;;
5125;SDS011;63008;53.112;8.896;2023-05-27T05:28:28;11.53;;;5.67;;
5125;SDS011;63008;53.112;8.896;2023-05-27T05:30:29;15.20;;;6.40;;
5125;SDS011;63008;53.112;8.896;2023-05-27T05:32:30;18.47;;;7.13;;
5125;SDS011;63008;53.112;8.896;2023-05-27T05:34:31;21.83;;;8.13;;
5125;SDS011;63008;53.112;8.896;2023-05-27T05:36:32;28.30;;;8.03;;
5125;SDS011;63008;53.112;8.896;2023-05-27T05:38:34;32.97;;;9.90;;
5125;SDS011;63008;53.112;8.896;2023-05-27T05:40:35;32.00;;;8.90;;
5125;SDS011;63008;53.112;8.896;2023-05-27T05:42:36;34.97;;;9.90;;
5125;SDS011;63008;53.112;8.896;2023-05-27T05:44:37;26.70;;;8.63;;
5125;SDS011;63008;53.112;8.896;2023-05-27T05:46:39;29.90;;;8.47;;
5125;SDS011;63008;53.112;8.896;2023-05-27T05:48:40;22.23;;;7.80;;
5125;SDS011;63008;53.112;8.896;2023-05-27T05:50:41;22.33;;;7.63;;
5125;SDS011;63008;53.112;8.896;2023-05-27T05:52:42;23.30;;;7.60;;
5125;SDS011;63008;53.112;8.896;2023-05-27T05:54:43;28.40;;;8.03;;
5125;SDS011;63008;53.112;8.896;2023-05-27T05:56:44;22.13;;;6.80;;
5125;SDS011;63008;53.112;8.896;2023-05-27T05:58:45;28.77;;;7.20;;
5125;SDS011;63008;53.112;8.896;2023-05-27T06:00:46;23.30;;;7.27;;
5125;SDS011;63008;53.112;8.896;2023-05-27T06:02:47;14.97;;;6.10;;
5125;SDS011;63008;53.112;8.896;2023-05-27T06:04:48;25.97;;;6.23;;
5125;SDS011;63008;53.112;8.896;2023-05-27T06:06:49;21.50;;;6.30;;
5125;SDS011;63008;53.112;8.896;2023-05-27T06:08:50;24.10;;;7.20;;
5125;SDS011;63008;53.112;8.896;2023-05-27T06:10:51;24.10;;;6.50;;
5125;SDS011;63008;53.112;8.896;2023-05-27T06:12:52;20.87;;;6.30;;
5125;SDS011;63008;53.112;8.896;2023-05-27T06:14:53;32.17;;;7.97;;
5125;SDS011;63008;53.112;8.896;2023-05-27T06:16:54;25.83;;;6.93;;
5125;SDS011;63008;53.112;8.896;2023-05-27T06:18:55;18.37;;;5.73;;
5125;SDS011;63008;53.112;8.896;2023-05-27T06:20:56;28.93;;;8.07;;
5125;SDS011;63008;53.112;8.896;2023-05-27T06:22:57;25.13;;;7.00;;
5125;SDS011;63008;53.112;8.896;2023-05-27T06:24:58;26.27;;;7.13;;
5125;SDS011;63008;53.112;8.896;2023-05-27T06:26:59;32.17;;;6.47;;
5125;SDS011;63008;53.112;8.896;2023-05-27T06:29:01;20.27;;;6.30;;
5125;SDS011;63008;53.112;8.896;2023-05-27T06:31:02;20.80;;;5.80;;
5125;SDS011;63008;53.112;8.896;2023-05-27T06:33:03;18.27;;;5.67;;
5125;SDS011;63008;53.112;8.896;2023-05-27T06:35:04;16.47;;;6.70;;
5125;SDS011;63008;53.112;8.896;2023-05-27T06:37:06;21.97;;;6.30;;
5125;SDS011;63008;53.112;8.896;2023-05-27T06:39:06;22.00;;;5.73;;
5125;SDS011;63008;53.112;8.896;2023-05-27T06:41:07;19.83;;;5.43;;
5125;SDS011;63008;53.112;8.896;2023-05-27T06:43:09;25.50;;;5.53;;
5125;SDS011;63008;53.112;8.896;2023-05-27T06:45:10;19.30;;;5.17;;
5125;SDS011;63008;53.112;8.896;2023-05-27T06:47:11;15.23;;;5.10;;
5125;SDS011;63008;53.112;8.896;2023-05-27T06:49:12;18.97;;;5.80;;
5125;SDS011;63008;53.112;8.896;2023-05-27T06:51:13;22.10;;;6.20;;
5125;SDS011;63008;53.112;8.896;2023-05-27T06:53:15;21.83;;;5.67;;
5125;SDS011;63008;53.112;8.896;2023-05-27T06:55:17;23.13;;;6.30;;
5125;SDS011;63008;53.112;8.896;2023-05-27T06:57:18;14.33;;;5.97;;
5125;SDS011;63008;53.112;8.896;2023-05-27T06:59:19;22.20;;;5.83;;
5125;SDS011;63008;53.112;8.896;2023-05-27T07:01:20;17.80;;;5.93;;
5125;SDS011;63008;53.112;8.896;2023-05-27T07:03:21;17.57;;;5.73;;
5125;SDS011;63008;53.112;8.896;2023-05-27T07:05:22;10.17;;;5.17;;
5125;SDS011;63008;53.112;8.896;2023-05-27T07:07:23;17.20;;;5.87;;
5125;SDS011;63008;53.112;8.896;2023-05-27T07:09:24;19.80;;;5.50;;
5125;SDS011;63008;53.112;8.896;2023-05-27T07:11:25;13.90;;;5.87;;
5125;SDS011;63008;53.112;8.896;2023-05-27T07:13:27;13.43;;;5.43;;
5125;SDS011;63008;53.112;8.896;2023-05-27T07:15:27;20.87;;;6.07;;
5125;SDS011;63008;53.112;8.896;2023-05-27T07:17:28;21.07;;;6.03;;
5125;SDS011;63008;53.112;8.896;2023-05-27T07:19:29;17.80;;;5.83;;
5125;SDS011;63008;53.112;8.896;2023-05-27T07:21:30;20.80;;;5.87;;
5125;SDS011;63008;53.112;8.896;2023-05-27T07:23:31;19.67;;;6.93;;
5125;SDS011;63008;53.112;8.896;2023-05-27T07:25:32;23.20;;;5.43;;
5125;SDS011;63008;53.112;8.896;2023-05-27T07:27:33;14.87;;;5.20;;
5125;SDS011;63008;53.112;8.896;2023-05-27T07:29:34;18.00;;;5.03;;
5125;SDS011;63008;53.112;8.896;2023-05-27T07:31:35;18.13;;;5.20;;
5125;SDS011;63008;53.112;8.896;2023-05-27T07:33:36;12.50;;;5.00;;
5125;SDS011;63008;53.112;8.896;2023-05-27T07:35:37;14.13;;;5.40;;
5125;SDS011;63008;53.112;8.896;2023-05-27T07:37:38;21.53;;;5.80;;
5125;SDS011;63008;53.112;8.896;2023-05-27T07:39:39;19.47;;;6.00;;
5125;SDS011;63008;53.112;8.896;2023-05-27T07:41:40;18.93;;;7.00;;
5125;SDS011;63008;53.112;8.896;2023-05-27T07:43:41;22.87;;;5.50;;
5125;SDS011;63008;53.112;8.896;2023-05-27T07:45:42;17.67;;;5.60;;
5125;SDS011;63008;53.112;8.896;2023-05-27T07:47:43;20.30;;;5.67;;
5125;SDS011;63008;53.112;8.896;2023-05-27T07:49:44;18.13;;;5.53;;
5125;SDS011;63008;53.112;8.896;2023-05-27T07:51:45;19.03;;;6.03;;
5125;SDS011;63008;53.112;8.896;2023-05-27T07:53:46;11.80;;;4.90;;
5125;SDS011;63008;53.112;8.896;2023-05-27T07:55:48;14.50;;;4.97;;
5125;SDS011;63008;53.112;8.896;2023-05-27T07:57:49;24.50;;;6.10;;
5125;SDS011;63008;53.112;8.896;2023-05-27T07:59:50;17.73;;;5.00;;
5125;SDS011;63008;53.112;8.896;2023-05-27T08:01:51;12.70;;;5.10;;
5125;SDS011;63008;53.112;8.896;2023-05-27T08:03:52;14.40;;;5.00;;
5125;SDS011;63008;53.112;8.896;2023-05-27T08:05:53;16.23;;;5.13;;
5125;SDS011;63008;53.112;8.896;2023-05-27T08:07:57;22.80;;;5.13;;
5125;SDS011;63008;53.112;8.896;2023-05-27T08:09:58;16.30;;;5.13;;
5125;SDS011;63008;53.112;8.896;2023-05-27T08:11:59;20.63;;;5.33;;
5125;SDS011;63008;53.112;8.896;2023-05-27T08:14:00;17.33;;;4.33;;
5125;SDS011;63008;53.112;8.896;2023-05-27T08:16:01;17.13;;;5.93;;
5125;SDS011;63008;53.112;8.896;2023-05-27T08:18:02;17.17;;;5.07;;
5125;SDS011;63008;53.112;8.896;2023-05-27T08:20:03;19.73;;;5.00;;
5125;SDS011;63008;53.112;8.896;2023-05-27T08:22:04;16.13;;;4.97;;
5125;SDS011;63008;53.112;8.896;2023-05-27T08:24:08;14.07;;;4.83;;
5125;SDS011;63008;53.112;8.896;2023-05-27T08:26:10;23.13;;;5.20;;
5125;SDS011;63008;53.112;8.896;2023-05-27T08:28:11;10.23;;;4.40;;
5125;SDS011;63008;53.112;8.896;2023-05-27T08:30:13;19.57;;;5.00;;
5125;SDS011;63008;53.112;8.896;2023-05-27T08:32:14;16.80;;;5.23;;
5125;SDS011;63008;53.112;8.896;2023-05-27T08:34:15;18.63;;;5.43;;
5125;SDS011;63008;53.112;8.896;2023-05-27T08:36:16;15.37;;;5.63;;
5125;SDS011;63008;53.112;8.896;2023-05-27T08:38:19;15.93;;;5.30;;
5125;SDS011;63008;53.112;8.896;2023-05-27T08:40:20;20.43;;;6.33;;
5125;SDS011;63008;53.112;8.896;2023-05-27T08:42:21;16.50;;;4.63;;
5125;SDS011;63008;53.112;8.896;2023-05-27T08:44:22;17.33;;;6.30;;
5125;SDS011;63008;53.112;8.896;2023-05-27T08:46:24;23.03;;;5.50;;
5125;SDS011;63008;53.112;8.896;2023-05-27T08:48:26;13.43;;;5.20;;
5125;SDS011;63008;53.112;8.896;2023-05-27T08:50:27;20.33;;;5.90;;
5125;SDS011;63008;53.112;8.896;2023-05-27T08:52:28;22.10;;;5.50;;
5125;SDS011;63008;53.112;8.896;2023-05-27T08:54:29;11.83;;;5.30;;
5125;SDS011;63008;53.112;8.896;2023-05-27T08:56:31;16.73;;;6.13;;
5125;SDS011;63008;53.112;8.896;2023-05-27T08:58:33;16.03;;;5.57;;
5125;SDS011;63008;53.112;8.896;2023-05-27T09:00:35;14.50;;;5.00;;
5125;SDS011;63008;53.112;8.896;2023-05-27T09:02:36;17.83;;;5.87;;
5125;SDS011;63008;53.112;8.896;2023-05-27T09:04:37;14.90;;;5.73;;
5125;SDS011;63008;53.112;8.896;2023-05-27T09:06:40;17.03;;;5.30;;
5125;SDS011;63008;53.112;8.896;2023-05-27T09:08:41;14.57;;;5.30;;
5125;SDS011;63008;53.112;8.896;2023-05-27T09:10:42;16.00;;;5.03;;
5125;SDS011;63008;53.112;8.896;2023-05-27T09:12:44;16.67;;;5.03;;
5125;SDS011;63008;53.112;8.896;2023-05-27T09:14:48;16.60;;;4.90;;
5125;SDS011;63008;53.112;8.896;2023-05-27T09:16:50;12.90;;;5.50;;
5125;SDS011;63008;53.112;8.896;2023-05-27T09:18:51;20.13;;;6.03;;
5125;SDS011;63008;53.112;8.896;2023-05-27T09:20:53;18.23;;;5.50;;
5125;SDS011;63008;53.112;8.896;2023-05-27T09:22:59;11.97;;;4.90;;
5125;SDS011;63008;53.112;8.896;2023-05-27T09:25:01;16.03;;;4.63;;
5125;SDS011;63008;53.112;8.896;2023-05-27T09:27:02;13.40;;;4.53;;
5125;SDS011;63008;53.112;8.896;2023-05-27T09:29:09;22.33;;;6.57;;
5125;SDS011;63008;53.112;8.896;2023-05-27T09:31:11;10.57;;;4.17;;
5125;SDS011;63008;53.112;8.896;2023-05-27T09:33:11;19.73;;;6.23;;
5125;SDS011;63008;53.112;8.896;2023-05-27T09:35:15;12.43;;;5.27;;
5125;SDS011;63008;53.112;8.896;2023-05-27T09:37:16;18.37;;;5.30;;
5125;SDS011;63008;53.112;8.896;2023-05-27T09:39:21;13.93;;;4.73;;
5125;SDS011;63008;53.112;8.896;2023-05-27T09:41:23;15.60;;;5.23;;
5125;SDS011;63008;53.112;8.896;2023-05-27T09:43:27;19.03;;;5.10;;
5125;SDS011;63008;53.112;8.896;2023-05-27T09:45:29;20.40;;;5.23;;
5125;SDS011;63008;53.112;8.896;2023-05-27T09:47:30;15.30;;;5.77;;
5125;SDS011;63008;53.112;8.896;2023-05-27T09:49:36;17.67;;;5.80;;
5125;SDS011;63008;53.112;8.896;2023-05-27T09:51:38;15.63;;;5.73;;
5125;SDS011;63008;53.112;8.896;2023-05-27T09:53:43;15.97;;;5.00;;
5125;SDS011;63008;53.112;8.896;2023-05-27T09:55:48;13.70;;;5.43;;
5125;SDS011;63008;53.112;8.896;2023-05-27T09:57:50;17.23;;;5.30;;
5125;SDS011;63008;53.112;8.896;2023-05-27T09:59:51;11.53;;;5.10;;
5125;SDS011;63008;53.112;8.896;2023-05-27T10:01:53;14.40;;;5.90;;
5125;SDS011;63008;53.112;8.896;2023-05-27T10:03:55;17.93;;;5.10;;
5125;SDS011;63008;53.112;8.896;2023-05-27T10:05:59;13.90;;;5.30;;
5125;SDS011;63008;53.112;8.896;2023-05-27T10:08:02;19.80;;;5.57;;
5125;SDS011;63008;53.112;8.896;2023-05-27T10:10:04;24.23;;;5.50;;
5125;SDS011;63008;53.112;8.896;2023-05-27T10:12:07;17.53;;;5.80;;
5125;SDS011;63008;53.112;8.896;2023-05-27T10:14:09;16.80;;;5.33;;
5125;SDS011;63008;53.112;8.896;2023-05-27T10:16:19;20.50;;;5.50;;
5125;SDS011;63008;53.112;8.896;2023-05-27T10:18:27;15.60;;;5.43;;
5125;SDS011;63008;53.112;8.896;2023-05-27T10:20:33;18.73;;;6.83;;
5125;SDS011;63008;53.112;8.896;2023-05-27T10:22:38;20.03;;;6.00;;
5125;SDS011;63008;53.112;8.896;2023-05-27T10:24:43;23.33;;;5.50;;
5125;SDS011;63008;53.112;8.896;2023-05-27T10:26:48;14.70;;;5.73;;
5125;SDS011;63008;53.112;8.896;2023-05-27T10:29:09;16.40;;;5.57;;
5125;SDS011;63008;53.112;8.896;2023-05-27T10:31:15;13.70;;;4.20;;
5125;SDS011;63008;53.112;8.896;2023-05-27T10:33:17;15.97;;;4.83;;
5125;SDS011;63008;53.112;8.896;2023-05-27T10:35:38;17.97;;;5.47;;
5125;SDS011;63008;53.112;8.896;2023-05-27T10:37:41;15.53;;;4.67;;
5125;SDS011;63008;53.112;8.896;2023-05-27T10:39:42;17.10;;;5.30;;
5125;SDS011;63008;53.112;8.896;2023-05-27T10:41:55;15.40;;;5.33;;
5125;SDS011;63008;53.112;8.896;2023-05-27T10:43:57;14.97;;;5.87;;
5125;SDS011;63008;53.112;8.896;2023-05-27T10:46:03;18.27;;;6.17;;
5125;SDS011;63008;53.112;8.896;2023-05-27T10:48:14;14.70;;;5.90;;
5125;SDS011;63008;53.112;8.896;2023-05-27T10:50:16;15.80;;;6.10;;
5125;SDS011;63008;53.112;8.896;2023-05-27T10:52:17;15.57;;;5.37;;
5125;SDS011;63008;53.112;8.896;2023-05-27T10:54:18;17.40;;;5.73;;
5125;SDS011;63008;53.112;8.896;2023-05-27T10:56:19;14.30;;;6.03;;
5125;SDS011;63008;53.112;8.896;2023-05-27T10:58:21;15.97;;;5.43;;
5125;SDS011;63008;53.112;8.896;2023-05-27T11:00:23;20.93;;;6.20;;
5125;SDS011;63008;53.112;8.896;2023-05-27T11:02:30;12.27;;;5.10;;
5125;SDS011;63008;53.112;8.896;2023-05-27T11:04:37;14.90;;;5.33;;
5125;SDS011;63008;53.112;8.896;2023-05-27T11:06:38;14.17;;;5.70;;
5125;SDS011;63008;53.112;8.896;2023-05-27T11:08:39;10.93;;;5.07;;
5125;SDS011;63008;53.112;8.896;2023-05-27T11:10:41;17.43;;;5.90;;
5125;SDS011;63008;53.112;8.896;2023-05-27T11:12:43;15.97;;;5.50;;
5125;SDS011;63008;53.112;8.896;2023-05-27T11:14:52;18.33;;;6.70;;
5125;SDS011;63008;53.112;8.896;2023-05-27T11:16:54;17.40;;;5.90;;
5125;SDS011;63008;53.112;8.896;2023-05-27T11:18:55;13.80;;;6.20;;
5125;SDS011;63008;53.112;8.896;2023-05-27T11:20:56;12.17;;;5.27;;
5125;SDS011;63008;53.112;8.896;2023-05-27T11:22:57;15.27;;;5.90;;
5125;SDS011;63008;53.112;8.896;2023-05-27T11:24:59;10.70;;;5.67;;
5125;SDS011;63008;53.112;8.896;2023-05-27T11:27:00;17.17;;;6.60;;
5125;SDS011;63008;53.112;8.896;2023-05-27T11:29:08;13.87;;;5.50;;
5125;SDS011;63008;53.112;8.896;2023-05-27T11:31:09;11.63;;;5.03;;
5125;SDS011;63008;53.112;8.896;2023-05-27T11:33:11;10.30;;;5.37;;
5125;SDS011;63008;53.112;8.896;2023-05-27T11:35:12;13.40;;;5.60;;
5125;SDS011;63008;53.112;8.896;2023-05-27T11:37:14;15.40;;;5.30;;
5125;SDS011;63008;53.112;8.896;2023-05-27T11:39:16;14.77;;;5.20;;
5125;SDS011;63008;53.112;8.896;2023-05-27T11:41:17;17.83;;;5.13;;
5125;SDS011;63008;53.112;8.896;2023-05-27T11:43:19;15.27;;;5.50;;
5125;SDS011;63008;53.112;8.896;2023-05-27T11:45:20;15.83;;;5.90;;
5125;SDS011;63008;53.112;8.896;2023-05-27T11:47:22;13.13;;;4.87;;
5125;SDS011;63008;53.112;8.896;2023-05-27T11:49:23;13.70;;;6.10;;
5125;SDS011;63008;53.112;8.896;2023-05-27T11:51:28;15.07;;;5.27;;
5125;SDS011;63008;53.112;8.896;2023-05-27T11:53:30;13.97;;;5.57;;
5125;SDS011;63008;53.112;8.896;2023-05-27T11:55:31;15.97;;;6.13;;
5125;SDS011;63008;53.112;8.896;2023-05-27T11:57:32;15.43;;;5.60;;
5125;SDS011;63008;53.112;8.896;2023-05-27T11:59:33;16.30;;;5.33;;
5125;SDS011;63008;53.112;8.896;2023-05-27T12:01:35;13.40;;;5.37;;
5125;SDS011;63008;53.112;8.896;2023-05-27T12:03:36;12.60;;;4.90;;
5125;SDS011;63008;53.112;8.896;2023-05-27T12:05:37;16.50;;;5.80;;
5125;SDS011;63008;53.112;8.896;2023-05-27T12:07:38;13.30;;;5.57;;
5125;SDS011;63008;53.112;8.896;2023-05-27T12:09:40;16.00;;;5.37;;
5125;SDS011;63008;53.112;8.896;2023-05-27T12:11:41;12.33;;;5.13;;
5125;SDS011;63008;53.112;8.896;2023-05-27T12:13:43;14.30;;;5.40;;
5125;SDS011;63008;53.112;8.896;2023-05-27T12:15:44;16.33;;;5.60;;
5125;SDS011;63008;53.112;8.896;2023-05-27T12:17:45;15.37;;;5.93;;
5125;SDS011;63008;53.112;8.896;2023-05-27T12:19:46;13.50;;;5.00;;